Time;durP1;ratioP1;P1;durP2;ratioP2;P2;SDS_P1;SDS_P2;PMS_P1;PMS_P2;Temp;Humidity;BMP_temperature;BMP_pressure;BME280_temperature;BME280_humidity;BME280_pressure;Samples;Min_cycle;Max_cycle;Signal;HPM_P1;HPM_P2
2023/07/13 00:02:22;;;;;;;1.50;1.00;;;18.50;86.50;;;;;;4954064;28;20488;-82
2023/07/13 00:04:50;;;;;;;1.43;0.90;;;18.50;87.10;;;;;;4974589;28;20465;-83
2023/07/13 00:07:19;;;;;;;1.43;1.00;;;18.40;86.80;;;;;;4955957;28;20479;-84
2023/07/13 00:09:46;;;;;;;1.50;0.90;;;18.40;86.80;;;;;;4967230;28;20472;-82
2023/07/13 00:12:26;;;;;;;1.50;0.90;;;18.40;86.90;;;;;;4970617;28;20491;-84
2023/07/13 00:14:53;;;;;;;1.50;0.90;;;18.30;87.00;;;;;;4980747;28;20732;-84
2023/07/13 00:17:19;;;;;;;1.43;0.90;;;18.30;87.30;;;;;;4968856;28;20506;-84
2023/07/13 00:19:46;;;;;;;1.50;0.90;;;18.20;87.70;;;;;;4978998;28;20502;-81
2023/07/13 00:22:13;;;;;;;1.50;0.90;;;18.20;87.60;;;;;;4952398;28;20483;-83
2023/07/13 00:24:41;;;;;;;1.50;1.00;;;18.20;87.60;;;;;;4973430;28;21471;-83
2023/07/13 00:27:09;;;;;;;1.50;1.00;;;18.20;87.80;;;;;;4969177;28;20966;-84
2023/07/13 00:29:37;;;;;;;1.50;1.00;;;18.20;87.50;;;;;;4978896;28;20466;-82
2023/07/13 00:32:05;;;;;;;1.47;0.90;;;18.20;88.00;;;;;;4969657;28;20841;-83
2023/07/13 00:34:32;;;;;;;1.50;0.90;;;18.20;87.70;;;;;;4979704;28;20485;-84
2023/07/13 00:36:59;;;;;;;1.40;0.90;;;18.20;87.70;;;;;;4966165;28;20578;-83
2023/07/13 00:39:26;;;;;;;1.50;0.90;;;18.20;87.90;;;;;;4977119;28;20472;-83
2023/07/13 00:41:53;;;;;;;1.50;1.00;;;18.10;88.00;;;;;;4956755;28;20500;-83
2023/07/13 00:44:23;;;;;;;1.50;0.90;;;18.00;88.30;;;;;;4967303;28;20462;-83
2023/07/13 00:46:51;;;;;;;1.50;1.00;;;18.00;88.70;;;;;;4957085;28;20566;-82
2023/07/13 00:49:22;;;;;;;1.43;0.90;;;18.00;88.80;;;;;;4972618;28;20483;-82
2023/07/13 00:51:52;;;;;;;1.50;1.00;;;17.90;88.80;;;;;;4967266;28;20556;-84
2023/07/13 00:54:24;;;;;;;1.50;1.00;;;17.90;88.90;;;;;;4976975;28;20558;-83
2023/07/13 00:56:54;;;;;;;1.50;1.00;;;17.80;89.10;;;;;;4967463;28;20509;-83
2023/07/13 00:59:22;;;;;;;1.50;0.97;;;17.80;89.40;;;;;;4976626;28;20469;-83
2023/07/13 01:01:51;;;;;;;1.50;1.00;;;17.80;89.80;;;;;;4968498;28;20487;-84
2023/07/13 01:04:18;;;;;;;1.50;1.00;;;17.70;90.00;;;;;;4979157;28;20462;-82
2023/07/13 01:06:46;;;;;;;1.50;1.00;;;17.70;90.20;;;;;;4958081;28;20491;-82
2023/07/13 01:09:15;;;;;;;1.40;0.90;;;17.70;90.20;;;;;;4960137;28;20481;-82
2023/07/13 01:11:42;;;;;;;1.50;1.00;;;17.70;89.80;;;;;;4957442;28;20483;-80
2023/07/13 01:14:09;;;;;;;1.50;0.90;;;17.70;90.50;;;;;;4966274;28;20467;-82
2023/07/13 01:16:37;;;;;;;1.47;1.00;;;17.60;91.30;;;;;;4965576;28;20490;-82
2023/07/13 01:19:19;;;;;;;1.40;0.90;;;17.60;90.50;;;;;;4976370;28;20477;-83
2023/07/13 01:21:51;;;;;;;1.47;0.90;;;17.60;90.70;;;;;;4955946;28;20483;-82
2023/07/13 01:24:18;;;;;;;1.43;1.00;;;17.50;91.80;;;;;;4964350;28;20470;-82
2023/07/13 01:26:45;;;;;;;1.50;1.00;;;17.50;91.40;;;;;;4955437;28;21060;-82
2023/07/13 01:29:11;;;;;;;1.50;1.00;;;17.50;91.00;;;;;;4972901;28;20465;-81
2023/07/13 01:31:38;;;;;;;1.50;0.90;;;17.50;91.70;;;;;;4961718;28;20489;-82
2023/07/13 01:34:05;;;;;;;1.50;0.90;;;17.40;91.30;;;;;;4958317;28;20465;-79
2023/07/13 01:36:32;;;;;;;1.47;0.90;;;17.50;91.60;;;;;;4962439;28;20494;-81
2023/07/13 01:39:01;;;;;;;1.50;1.00;;;17.40;91.50;;;;;;4970753;28;20520;-82
2023/07/13 01:41:27;;;;;;;1.50;0.90;;;17.50;91.30;;;;;;4967135;28;20485;-81
2023/07/13 01:43:54;;;;;;;1.50;1.00;;;17.40;91.20;;;;;;4978747;28;20461;-82
2023/07/13 01:46:21;;;;;;;1.50;1.00;;;17.40;91.30;;;;;;4969900;28;20489;-82
2023/07/13 01:48:48;;;;;;;1.43;1.00;;;17.40;91.60;;;;;;4980115;28;20477;-81
2023/07/13 01:51:14;;;;;;;1.50;0.90;;;17.40;91.40;;;;;;4970119;28;20480;-81
2023/07/13 01:53:41;;;;;;;1.50;1.00;;;17.40;91.50;;;;;;4977842;28;20839;-81
2023/07/13 01:56:09;;;;;;;1.50;1.00;;;17.40;91.40;;;;;;4969980;28;20486;-81
2023/07/13 01:58:36;;;;;;;1.43;1.00;;;17.40;91.90;;;;;;4980305;28;20458;-82
2023/07/13 02:01:03;;;;;;;1.43;0.90;;;17.40;91.50;;;;;;4970355;28;20473;-82
2023/07/13 02:03:30;;;;;;;1.50;1.00;;;17.40;91.40;;;;;;4976137;28;20460;-80
2023/07/13 02:05:56;;;;;;;1.50;1.00;;;17.30;91.70;;;;;;4967726;28;20473;-79
2023/07/13 02:08:23;;;;;;;1.50;0.90;;;17.30;91.90;;;;;;4977075;28;20477;-80
2023/07/13 02:10:50;;;;;;;1.50;1.00;;;17.30;92.40;;;;;;4969994;28;20474;-79
2023/07/13 02:13:18;;;;;;;1.50;1.00;;;17.30;92.50;;;;;;4978473;28;20549;-78
2023/07/13 02:15:45;;;;;;;1.50;1.00;;;17.20;92.80;;;;;;4977053;28;20500;-78
2023/07/13 02:18:16;;;;;;;1.50;1.00;;;17.20;93.20;;;;;;4950619;28;20484;-80
2023/07/13 02:20:43;;;;;;;1.50;1.00;;;17.20;92.40;;;;;;4971558;28;20521;-79
2023/07/13 02:23:10;;;;;;;1.50;0.90;;;17.20;93.00;;;;;;4961841;28;20474;-80
2023/07/13 02:25:37;;;;;;;1.50;1.00;;;17.20;92.80;;;;;;4973248;28;20461;-79
2023/07/13 02:28:04;;;;;;;1.40;0.90;;;17.20;93.10;;;;;;4962273;28;20481;-79
2023/07/13 02:30:32;;;;;;;1.50;1.00;;;17.20;93.00;;;;;;4973740;28;20485;-80
2023/07/13 02:32:59;;;;;;;1.50;1.00;;;17.20;93.30;;;;;;4946690;28;20554;-81
2023/07/13 02:35:26;;;;;;;1.47;1.00;;;17.10;93.20;;;;;;4976424;28;20867;-82
2023/07/13 02:37:53;;;;;;;1.50;0.90;;;17.10;93.30;;;;;;4961506;28;20505;-81
2023/07/13 02:40:20;;;;;;;1.50;1.00;;;17.10;93.30;;;;;;4971866;28;20458;-81
2023/07/13 02:42:47;;;;;;;1.47;1.00;;;17.20;93.30;;;;;;4959481;28;20507;-81
2023/07/13 02:45:14;;;;;;;1.50;1.00;;;17.10;93.40;;;;;;4971517;28;20463;-81
2023/07/13 02:47:43;;;;;;;1.50;0.90;;;17.10;93.40;;;;;;4960931;28;20494;-82
2023/07/13 02:50:10;;;;;;;1.50;0.97;;;17.10;93.70;;;;;;4973546;28;20461;-82
2023/07/13 02:52:37;;;;;;;1.50;0.90;;;17.10;93.40;;;;;;4963682;28;20989;-81
2023/07/13 02:55:04;;;;;;;1.50;1.00;;;17.00;93.70;;;;;;4976957;28;21123;-80
2023/07/13 02:57:32;;;;;;;1.47;0.90;;;17.00;93.70;;;;;;4950398;28;20482;-82
2023/07/13 02:59:59;;;;;;;1.50;1.00;;;17.00;93.70;;;;;;4975199;28;20545;-80
2023/07/13 03:02:27;;;;;;;1.50;0.90;;;17.00;94.10;;;;;;4961637;28;21245;-80
2023/07/13 03:04:56;;;;;;;1.43;0.90;;;17.00;94.00;;;;;;4971306;28;20521;-80
2023/07/13 03:07:22;;;;;;;1.47;0.90;;;16.90;94.00;;;;;;4960926;28;20485;-82
2023/07/13 03:09:49;;;;;;;1.50;1.00;;;16.90;94.20;;;;;;4974285;28;20461;-81
2023/07/13 03:12:16;;;;;;;1.50;1.00;;;16.90;93.80;;;;;;4966177;28;20577;-81
2023/07/13 03:14:43;;;;;;;1.43;0.90;;;16.90;94.10;;;;;;4976453;28;20472;-82
2023/07/13 03:17:10;;;;;;;1.50;1.00;;;16.90;94.20;;;;;;4967681;28;20482;-81
2023/07/13 03:19:36;;;;;;;1.47;1.00;;;16.90;94.10;;;;;;4975948;28;20468;-81
2023/07/13 03:22:05;;;;;;;1.47;0.90;;;16.80;93.80;;;;;;4965554;28;20489;-83
2023/07/13 03:24:34;;;;;;;1.47;1.00;;;16.90;94.10;;;;;;4979556;28;20462;-82
2023/07/13 03:27:02;;;;;;;1.50;1.00;;;16.80;94.40;;;;;;4966352;28;20486;-80
2023/07/13 03:29:29;;;;;;;1.50;1.00;;;16.80;94.20;;;;;;4974508;28;20461;-83
2023/07/13 03:31:55;;;;;;;1.50;0.90;;;16.80;94.10;;;;;;4963490;28;20482;-80
2023/07/13 03:34:22;;;;;;;1.50;1.00;;;16.80;94.90;;;;;;4974671;28;20466;-82
2023/07/13 03:36:49;;;;;;;1.43;1.00;;;16.80;94.70;;;;;;4966823;28;20949;-83
2023/07/13 03:39:17;;;;;;;1.50;1.00;;;16.80;94.40;;;;;;4976652;28;20945;-83
2023/07/13 03:41:44;;;;;;;1.50;0.90;;;16.80;94.80;;;;;;4966252;28;20490;-83
2023/07/13 03:44:10;;;;;;;1.47;0.97;;;16.70;94.50;;;;;;4977143;28;20458;-82
2023/07/13 03:46:37;;;;;;;1.47;0.90;;;16.70;95.00;;;;;;4966858;28;20918;-83
2023/07/13 03:49:06;;;;;;;1.50;1.00;;;16.70;94.80;;;;;;4975202;28;20462;-82
2023/07/13 03:51:32;;;;;;;1.50;1.00;;;16.70;94.60;;;;;;4965757;28;20490;-82
2023/07/13 03:53:59;;;;;;;1.50;1.00;;;16.70;94.90;;;;;;4973817;28;20466;-82
2023/07/13 03:56:27;;;;;;;1.47;1.00;;;16.70;94.50;;;;;;4965231;28;20601;-82
2023/07/13 03:58:54;;;;;;;1.50;1.00;;;16.60;95.00;;;;;;4968363;28;20454;-82
2023/07/13 04:01:23;;;;;;;1.50;1.00;;;16.60;95.40;;;;;;4963062;28;21018;-84
2023/07/13 04:03:50;;;;;;;1.50;1.00;;;16.60;95.00;;;;;;4966117;28;20463;-82
2023/07/13 04:06:21;;;;;;;1.50;1.00;;;16.60;95.40;;;;;;4964615;28;20498;-80
2023/07/13 04:08:50;;;;;;;1.50;1.00;;;16.60;95.10;;;;;;4966269;28;20466;-82
2023/07/13 04:11:18;;;;;;;1.47;1.00;;;16.60;95.10;;;;;;4962153;28;20638;-83
2023/07/13 04:13:46;;;;;;;1.50;1.00;;;16.60;95.60;;;;;;4962951;28;21015;-81
2023/07/13 04:16:13;;;;;;;1.50;1.00;;;16.60;95.20;;;;;;4964269;28;20479;-81
2023/07/13 04:18:41;;;;;;;1.47;1.00;;;16.60;95.20;;;;;;4966137;28;20477;-82
2023/07/13 04:21:08;;;;;;;1.50;1.00;;;16.60;95.40;;;;;;4962451;28;20488;-82
2023/07/13 04:23:35;;;;;;;1.47;1.00;;;16.60;96.00;;;;;;4974097;28;20458;-82
2023/07/13 04:26:02;;;;;;;1.50;1.00;;;16.60;96.10;;;;;;4966063;28;21104;-82
2023/07/13 04:28:29;;;;;;;1.50;1.00;;;16.60;96.10;;;;;;4973383;28;20485;-83
2023/07/13 04:30:57;;;;;;;1.47;0.97;;;16.60;96.10;;;;;;4966722;28;21019;-81
2023/07/13 04:33:24;;;;;;;1.47;0.90;;;16.60;96.20;;;;;;4962554;28;20462;-82
2023/07/13 04:35:54;;;;;;;1.47;1.00;;;16.70;96.40;;;;;;4967889;28;20490;-81
2023/07/13 04:38:21;;;;;;;1.47;0.90;;;16.70;96.50;;;;;;4959507;28;20462;-81
2023/07/13 04:40:48;;;;;;;1.50;1.00;;;16.70;96.00;;;;;;4968912;28;20458;-82
2023/07/13 04:43:15;;;;;;;1.50;0.97;;;16.80;96.60;;;;;;4982242;28;20481;-81
2023/07/13 04:45:43;;;;;;;1.47;0.90;;;16.80;96.60;;;;;;4979807;28;21108;-82
2023/07/13 04:48:11;;;;;;;1.50;1.00;;;16.80;96.20;;;;;;4952250;28;20482;-81
2023/07/13 04:50:38;;;;;;;1.47;1.00;;;16.90;96.90;;;;;;4976067;28;20457;-81
2023/07/13 04:53:05;;;;;;;1.47;1.00;;;16.90;96.90;;;;;;4968217;28;21058;-83
2023/07/13 04:55:32;;;;;;;1.47;0.90;;;17.00;97.00;;;;;;4974479;28;21075;-79
2023/07/13 04:57:59;;;;;;;1.50;0.90;;;17.10;97.30;;;;;;4948525;28;20491;-81
2023/07/13 05:00:27;;;;;;;1.50;0.90;;;17.20;97.00;;;;;;4972929;28;20461;-82
2023/07/13 05:02:55;;;;;;;1.43;1.00;;;17.30;97.00;;;;;;4949719;28;20497;-82
2023/07/13 05:05:23;;;;;;;1.43;0.90;;;17.50;96.80;;;;;;4979614;28;20450;-83
2023/07/13 05:07:49;;;;;;;1.50;0.90;;;17.70;96.90;;;;;;4981002;23;20505;-83
2023/07/13 05:10:19;;;;;;;1.50;0.90;;;17.80;96.70;;;;;;4995622;28;20475;-82
2023/07/13 05:12:46;;;;;;;1.47;0.93;;;18.00;96.60;;;;;;4999974;28;20482;-82
2023/07/13 05:15:14;;;;;;;1.50;1.00;;;18.00;96.00;;;;;;4995986;28;20467;-81
2023/07/13 05:17:43;;;;;;;1.50;1.00;;;18.20;96.20;;;;;;4996664;28;20487;-80
2023/07/13 05:20:11;;;;;;;1.50;0.90;;;18.40;95.50;;;;;;4989525;28;20579;-80
2023/07/13 05:22:39;;;;;;;1.40;0.90;;;18.50;94.90;;;;;;4991077;28;20511;-82
2023/07/13 05:25:07;;;;;;;1.50;0.90;;;18.70;95.00;;;;;;4988146;28;20568;-83
2023/07/13 05:27:34;;;;;;;1.47;0.90;;;18.90;94.60;;;;;;4990731;28;20511;-82
2023/07/13 05:30:01;;;;;;;1.47;0.90;;;19.00;94.50;;;;;;4994209;28;20465;-81
2023/07/13 05:32:28;;;;;;;1.43;0.90;;;19.20;93.70;;;;;;4995896;28;20483;-81
2023/07/13 05:34:55;;;;;;;1.50;0.90;;;19.40;93.80;;;;;;4987846;28;20464;-82
2023/07/13 05:37:22;;;;;;;1.50;0.90;;;19.50;93.00;;;;;;4991829;28;20990;-82
2023/07/13 05:39:51;;;;;;;1.43;0.90;;;19.70;93.00;;;;;;4994808;28;20477;-81
2023/07/13 05:42:18;;;;;;;1.50;0.90;;;19.80;92.30;;;;;;4994813;28;20555;-81
2023/07/13 05:44:45;;;;;;;1.47;1.07;;;19.90;92.40;;;;;;5000533;28;20476;-80
2023/07/13 05:47:14;;;;;;;1.43;0.90;;;19.90;92.20;;;;;;4994661;28;20490;-82
2023/07/13 05:49:41;;;;;;;1.43;0.90;;;19.80;92.10;;;;;;4993514;28;20565;-82
2023/07/13 05:52:08;;;;;;;1.47;0.90;;;19.80;92.50;;;;;;4987312;28;20763;-81
2023/07/13 05:54:36;;;;;;;1.50;1.00;;;19.90;92.40;;;;;;4997488;28;20846;-79
2023/07/13 05:57:05;;;;;;;1.50;0.90;;;19.90;92.80;;;;;;4992188;28;20530;-79
2023/07/13 05:59:32;;;;;;;1.47;0.90;;;19.90;92.70;;;;;;4997016;28;20461;-80
2023/07/13 06:01:59;;;;;;;1.47;0.90;;;19.90;92.70;;;;;;4991047;28;20485;-80
2023/07/13 06:04:26;;;;;;;1.47;0.90;;;20.00;92.60;;;;;;4996950;28;20857;-81
2023/07/13 06:06:53;;;;;;;1.47;0.90;;;20.00;92.30;;;;;;4994069;28;20535;-82
2023/07/13 06:09:26;;;;;;;1.47;0.90;;;19.90;92.50;;;;;;5003178;28;20489;-82
2023/07/13 06:11:53;;;;;;;1.50;0.90;;;19.80;92.80;;;;;;4993959;28;20500;-80
2023/07/13 06:14:22;;;;;;;1.47;0.90;;;19.70;93.00;;;;;;4999879;28;20480;-79
2023/07/13 06:16:51;;;;;;;1.50;0.90;;;19.60;93.60;;;;;;4988703;28;20488;-81
2023/07/13 06:19:18;;;;;;;1.47;0.90;;;19.60;94.30;;;;;;4998077;28;20470;-83
2023/07/13 06:21:45;;;;;;;1.50;1.00;;;19.60;94.60;;;;;;4985588;28;20481;-81
2023/07/13 06:24:12;;;;;;;1.47;0.90;;;19.60;95.10;;;;;;5001718;28;20465;-81
2023/07/13 06:26:39;;;;;;;1.50;0.90;;;19.80;94.80;;;;;;4980193;28;20507;-80
2023/07/13 06:29:06;;;;;;;1.50;0.90;;;20.00;94.30;;;;;;4996694;28;20462;-81
2023/07/13 06:31:34;;;;;;;1.47;0.90;;;20.10;93.80;;;;;;4980963;28;20603;-81
2023/07/13 06:34:01;;;;;;;1.47;0.90;;;20.20;93.40;;;;;;4995461;28;20464;-82
2023/07/13 06:36:40;;;;;;;1.50;0.90;;;20.40;93.90;;;;;;4983713;28;20943;-82
2023/07/13 06:39:07;;;;;;;1.50;0.90;;;20.70;92.80;;;;;;4996402;28;21059;-79
2023/07/13 06:41:35;;;;;;;1.50;0.90;;;20.90;92.10;;;;;;4982635;28;20484;-79
2023/07/13 06:44:02;;;;;;;1.47;0.90;;;21.10;91.30;;;;;;4993044;28;20475;-80
2023/07/13 06:46:30;;;;;;;1.50;0.90;;;21.30;91.00;;;;;;4982098;28;20910;-82
2023/07/13 06:48:58;;;;;;;1.43;0.90;;;21.60;90.40;;;;;;4998133;28;20567;-80
2023/07/13 06:51:25;;;;;;;1.50;0.90;;;21.90;90.50;;;;;;4987518;28;20476;-82
2023/07/13 06:53:52;;;;;;;1.50;0.90;;;22.20;89.20;;;;;;5000187;28;20473;-80
2023/07/13 06:56:19;;;;;;;1.50;0.90;;;22.50;87.90;;;;;;4984183;28;21367;-81
2023/07/13 06:59:01;;;;;;;1.50;0.90;;;22.60;87.30;;;;;;4997244;28;20488;-81
2023/07/13 07:02:02;;;;;;;1.43;0.90;;;22.50;87.30;;;;;;4985995;28;20552;-82
2023/07/13 07:04:33;;;;;;;1.47;0.90;;;22.50;87.80;;;;;;4995856;28;21034;-80
2023/07/13 07:07:00;;;;;;;1.47;0.90;;;22.50;87.60;;;;;;4991075;28;20491;-81
2023/07/13 07:09:31;;;;;;;1.50;0.90;;;22.40;87.80;;;;;;4995663;28;20956;-83
2023/07/13 07:11:58;;;;;;;1.47;0.90;;;22.30;87.80;;;;;;4991237;28;20566;-82
2023/07/13 07:14:27;;;;;;;1.50;0.90;;;22.30;88.10;;;;;;4996098;28;20886;-84
2023/07/13 07:16:53;;;;;;;1.50;0.90;;;22.20;87.80;;;;;;4991864;28;20481;-82
2023/07/13 07:19:23;;;;;;;1.47;0.90;;;22.00;88.40;;;;;;4997253;28;20460;-83
2023/07/13 07:21:51;;;;;;;1.50;0.90;;;21.90;88.60;;;;;;4986076;28;20476;-83
2023/07/13 07:24:18;;;;;;;1.47;0.90;;;21.80;89.10;;;;;;4997395;28;20557;-82
2023/07/13 07:26:53;;;;;;;1.40;0.90;;;21.80;88.80;;;;;;4985696;28;20480;-81
2023/07/13 07:29:20;;;;;;;1.50;0.90;;;21.80;89.20;;;;;;4995000;28;20504;-82
2023/07/13 07:31:47;;;;;;;1.47;0.90;;;21.60;89.30;;;;;;4986899;28;20484;-83
2023/07/13 07:34:14;;;;;;;1.47;0.87;;;21.50;89.70;;;;;;5000437;28;20457;-83
2023/07/13 07:36:55;;;;;;;1.47;0.90;;;21.40;90.00;;;;;;4986687;28;20529;-83
2023/07/13 07:39:22;;;;;;;1.43;0.90;;;21.30;90.40;;;;;;4996932;28;21070;-83
2023/07/13 07:41:49;;;;;;;1.73;1.50;;;21.30;91.00;;;;;;4984982;28;20484;-84
2023/07/13 07:44:29;;;;;;;1.50;0.90;;;21.40;90.40;;;;;;4993391;28;20461;-85
2023/07/13 07:46:56;;;;;;;1.47;0.90;;;21.50;90.50;;;;;;4983534;28;20476;-82
2023/07/13 07:49:35;;;;;;;1.50;0.90;;;21.50;90.20;;;;;;4994074;28;20460;-83
2023/07/13 07:52:07;;;;;;;1.50;0.90;;;21.70;90.10;;;;;;4980455;28;20813;-83
2023/07/13 07:57:49;;;;;;;1.50;0.90;;;22.20;89.30;;;;;;4992540;28;21104;-82
2023/07/13 08:00:42;;;;;;;1.47;0.90;;;22.60;89.10;;;;;;4987254;28;20449;-85
2023/07/13 08:03:35;;;;;;;1.43;0.90;;;23.10;88.00;;;;;;4974440;28;20487;-83
2023/07/13 08:06:02;;;;;;;1.47;0.80;;;23.50;86.80;;;;;;4982883;28;20458;-84
2023/07/13 08:08:30;;;;;;;1.43;0.90;;;23.80;85.30;;;;;;5044842;23;21023;-84
2023/07/13 08:11:08;;;;;;;1.50;0.90;;;24.00;84.90;;;;;;4991631;28;20488;-84
2023/07/13 08:13:35;;;;;;;1.47;0.90;;;24.10;84.40;;;;;;5012796;28;20701;-82
2023/07/13 08:16:28;;;;;;;1.43;0.90;;;24.10;84.10;;;;;;4991850;28;20547;-82
2023/07/13 08:18:55;;;;;;;1.47;0.90;;;24.00;84.00;;;;;;5012787;28;20489;-83
2023/07/13 08:21:22;;;;;;;1.47;0.90;;;23.90;84.10;;;;;;5000584;28;20509;-82
2023/07/13 08:23:50;;;;;;;1.47;0.90;;;23.80;84.60;;;;;;5021996;28;20708;-81
2023/07/13 08:26:21;;;;;;;1.47;0.90;;;23.90;85.10;;;;;;4998988;28;20477;-83
2023/07/13 08:28:48;;;;;;;1.50;0.80;;;23.90;84.70;;;;;;5021871;28;20480;-83
2023/07/13 08:31:15;;;;;;;1.50;0.80;;;24.00;85.10;;;;;;4996886;28;20487;-84
2023/07/13 08:33:46;;;;;;;1.43;0.90;;;24.10;84.50;;;;;;5015131;28;20469;-84
2023/07/13 08:36:13;;;;;;;1.47;0.80;;;24.20;84.60;;;;;;5000801;28;20482;-84
2023/07/13 08:38:40;;;;;;;1.47;0.87;;;24.20;84.50;;;;;;5025199;28;20990;-81
2023/07/13 08:41:31;;;;;;;1.43;0.90;;;24.20;84.50;;;;;;5009385;28;20487;-83
2023/07/13 08:44:01;;;;;;;1.43;0.90;;;24.20;84.70;;;;;;5028745;28;20861;-81
2023/07/13 08:46:45;;;;;;;1.50;0.80;;;24.30;84.30;;;;;;5012918;28;20508;-82
2023/07/13 08:49:29;;;;;;;1.50;0.90;;;24.20;84.70;;;;;;5026622;28;20491;-82
2023/07/13 08:52:01;;;;;;;1.40;0.90;;;24.20;84.20;;;;;;5023496;28;20471;-83
2023/07/13 08:54:32;;;;;;;1.47;0.80;;;24.20;84.20;;;;;;5023710;28;20530;-83
2023/07/13 08:57:05;;;;;;;1.50;0.80;;;24.30;84.10;;;;;;5020566;28;20475;-81
2023/07/13 08:59:35;;;;;;;1.47;0.83;;;24.30;83.90;;;;;;5028052;28;20538;-83
2023/07/13 09:08:15;;;;;;;1.50;0.80;;;24.30;83.50;;;;;;5014296;28;20588;-81
2023/07/13 09:10:46;;;;;;;1.47;0.90;;;24.40;83.40;;;;;;5016619;28;20472;-79
2023/07/13 09:13:30;;;;;;;1.47;0.90;;;24.40;83.40;;;;;;5001013;28;20483;-81
2023/07/13 09:16:05;;;;;;;1.47;0.90;;;24.50;83.60;;;;;;5004906;28;20849;-81
2023/07/13 09:18:36;;;;;;;1.47;0.90;;;24.50;83.10;;;;;;5038592;28;21089;-81
2023/07/13 09:21:06;;;;;;;1.50;0.90;;;24.50;83.00;;;;;;5007598;28;20602;-82
2023/07/13 09:23:53;;;;;;;1.47;0.87;;;24.50;82.70;;;;;;5037297;28;20544;-80
2023/07/13 09:26:25;;;;;;;1.50;0.90;;;24.50;82.20;;;;;;5007268;28;20502;-81
2023/07/13 09:29:04;;;;;;;1.47;0.80;;;24.60;82.60;;;;;;5037285;28;20673;-82
2023/07/13 09:31:42;;;;;;;1.47;0.90;;;24.60;82.50;;;;;;5007572;28;20554;-83
2023/07/13 09:34:11;;;;;;;1.47;0.90;;;24.60;82.00;;;;;;5022705;28;20456;-82
2023/07/13 09:36:49;;;;;;;1.40;0.80;;;24.60;82.00;;;;;;5016593;28;20548;-82
2023/07/13 09:39:30;;;;;;;1.43;0.90;;;24.70;81.80;;;;;;5025899;28;20488;-82
2023/07/13 09:42:07;;;;;;;1.50;0.90;;;24.90;81.60;;;;;;5020414;28;20514;-82
2023/07/13 09:44:53;;;;;;;1.43;0.90;;;25.00;80.70;;;;;;5018684;28;20495;-81
2023/07/13 09:47:29;;;;;;;1.50;0.83;;;25.10;79.90;;;;;;5025581;28;20488;-82
2023/07/13 09:49:58;;;;;;;1.50;0.90;;;25.10;80.20;;;;;;5012160;28;20494;-83
2023/07/13 09:52:27;;;;;;;1.47;0.90;;;25.10;79.50;;;;;;5026848;28;20486;-82
2023/07/13 09:54:58;;;;;;;1.50;1.00;;;25.20;79.60;;;;;;5015566;28;20456;-82
2023/07/13 09:57:27;;;;;;;1.47;0.83;;;25.20;79.60;;;;;;5019646;28;20482;-82
2023/07/13 09:59:58;;;;;;;1.47;0.87;;;25.20;79.50;;;;;;5015207;28;20468;-83
2023/07/13 10:02:28;;;;;;;1.50;0.90;;;25.20;79.20;;;;;;5013531;28;20478;-82
2023/07/13 10:05:00;;;;;;;1.50;0.87;;;25.20;79.20;;;;;;5014645;28;20471;-81
2023/07/13 10:07:30;;;;;;;1.47;0.87;;;25.10;79.50;;;;;;5022758;28;20507;-81
2023/07/13 10:10:00;;;;;;;1.47;0.80;;;25.20;79.40;;;;;;5014708;28;20477;-81
2023/07/13 10:12:28;;;;;;;1.50;0.90;;;25.30;78.90;;;;;;5016934;28;20888;-80
2023/07/13 10:15:00;;;;;;;1.47;0.80;;;25.40;77.90;;;;;;5013752;28;20498;-82
2023/07/13 10:17:31;;;;;;;1.47;0.80;;;25.40;78.90;;;;;;5015518;28;21001;-81
2023/07/13 10:20:04;;;;;;;3.10;2.40;;;25.50;78.20;;;;;;5016081;28;20468;-82
2023/07/13 10:22:43;;;;;;;1.47;0.80;;;25.60;77.90;;;;;;5029277;28;20557;-81
2023/07/13 10:25:25;;;;;;;1.47;0.80;;;25.70;78.00;;;;;;5014483;28;20464;-81
2023/07/13 10:27:56;;;;;;;1.50;0.80;;;25.90;77.40;;;;;;5025699;28;21114;-79
2023/07/13 10:30:29;;;;;;;1.47;0.80;;;26.00;77.40;;;;;;5016448;28;20472;-81
2023/07/13 10:33:01;;;;;;;1.43;0.90;;;26.10;77.30;;;;;;5030150;28;20588;-82
2023/07/13 10:35:29;;;;;;;1.47;0.90;;;26.20;76.30;;;;;;5018345;28;20463;-82
2023/07/13 10:38:10;;;;;;;1.47;0.80;;;26.20;76.10;;;;;;5027783;28;20486;-81
2023/07/13 10:40:46;;;;;;;1.43;0.80;;;26.20;75.70;;;;;;5012180;28;20543;-82
2023/07/13 10:43:19;;;;;;;1.50;0.90;;;26.20;75.50;;;;;;5006869;28;20471;-82
2023/07/13 10:45:54;;;;;;;1.50;0.80;;;26.20;75.70;;;;;;5012374;28;20463;-84
2023/07/13 10:48:29;;;;;;;1.47;0.90;;;26.20;75.40;;;;;;5039696;28;20486;-84
2023/07/13 10:50:57;;;;;;;1.40;0.80;;;26.20;75.80;;;;;;5011550;28;20476;-84
2023/07/13 10:53:30;;;;;;;1.40;0.80;;;26.30;75.90;;;;;;5034180;28;20471;-83
2023/07/13 10:56:01;;;;;;;1.40;0.90;;;26.40;75.80;;;;;;5012695;28;20977;-81
2023/07/13 10:58:33;;;;;;;1.50;0.90;;;26.40;75.30;;;;;;5028462;28;20527;-82
2023/07/13 11:01:07;;;;;;;1.50;0.90;;;26.40;75.00;;;;;;5006273;28;20460;-82
2023/07/13 11:03:58;;;;;;;1.40;0.80;;;26.40;75.20;;;;;;5035125;28;20463;-83
2023/07/13 11:06:39;;;;;;;1.43;0.87;;;26.30;74.70;;;;;;5006145;28;20553;-83
2023/07/13 11:09:40;;;;;;;1.40;0.80;;;26.20;75.80;;;;;;5021959;28;20480;-83
2023/07/13 11:16:14;;;;;;;1.40;0.80;;;26.00;75.80;;;;;;4994904;28;20499;-83
2023/07/13 11:22:17;;;;;;;1.40;0.80;;;25.90;75.70;;;;;;4996914;28;20478;-84
2023/07/13 11:24:59;;;;;;;1.43;0.90;;;25.80;76.40;;;;;;5026456;28;20550;-83
2023/07/13 11:27:40;;;;;;;1.47;0.90;;;25.90;76.70;;;;;;5023436;28;20497;-82
2023/07/13 11:30:32;;;;;;;1.40;0.90;;;25.70;75.80;;;;;;5011151;28;20452;-83
2023/07/13 11:33:14;;;;;;;1.50;0.80;;;25.70;76.00;;;;;;5018578;28;20587;-82
2023/07/13 11:35:59;;;;;;;1.47;0.80;;;25.60;76.10;;;;;;5019380;28;20496;-84
2023/07/13 11:38:37;;;;;;;1.40;0.90;;;25.40;76.80;;;;;;5003164;28;20490;-83
2023/07/13 11:41:13;;;;;;;1.50;0.83;;;25.30;77.00;;;;;;5009093;28;20463;-82
2023/07/13 11:43:42;;;;;;;1.43;0.80;;;25.20;77.20;;;;;;5038533;28;20998;-83
2023/07/13 11:46:19;;;;;;;1.47;0.90;;;25.30;77.90;;;;;;5007373;28;20543;-82
2023/07/13 11:48:48;;;;;;;1.50;0.90;;;25.30;77.70;;;;;;5024922;28;20483;-82
2023/07/13 11:51:22;;;;;;;1.43;0.90;;;25.40;75.90;;;;;;5002361;28;20783;-82
2023/07/13 11:53:51;;;;;;;1.47;0.80;;;25.40;76.30;;;;;;5023923;28;21048;-82
2023/07/13 11:56:19;;;;;;;1.47;0.90;;;25.40;77.00;;;;;;5011094;28;20484;-82
2023/07/13 11:58:50;;;;;;;1.50;0.80;;;25.70;76.80;;;;;;5020251;28;20559;-83
2023/07/13 12:01:25;;;;;;;1.50;0.90;;;26.20;75.80;;;;;;4994821;28;20484;-83
2023/07/13 12:03:54;;;;;;;1.83;1.33;;;26.50;75.40;;;;;;5020804;28;20471;-81
2023/07/13 12:06:28;;;;;;;1.47;0.83;;;26.70;73.90;;;;;;5005632;28;20987;-82
2023/07/13 12:08:58;;;;;;;1.60;1.20;;;26.90;73.70;;;;;;5022363;28;21025;-82
2023/07/13 12:11:25;;;;;;;1.50;0.80;;;27.30;72.80;;;;;;5006098;28;21064;-81
2023/07/13 12:13:52;;;;;;;1.47;0.80;;;27.60;71.20;;;;;;5021130;28;20547;-83
2023/07/13 12:16:28;;;;;;;1.43;0.80;;;27.60;71.00;;;;;;5004502;28;20501;-82
2023/07/13 12:18:58;;;;;;;1.43;0.80;;;27.80;70.80;;;;;;5022328;28;20487;-82
2023/07/13 12:21:42;;;;;;;1.47;0.80;;;27.90;69.90;;;;;;5012285;28;20931;-82
2023/07/13 12:24:16;;;;;;;1.50;0.80;;;27.90;69.50;;;;;;5023709;28;20495;-83
2023/07/13 12:26:51;;;;;;;1.50;0.90;;;28.20;69.30;;;;;;5008539;28;20490;-83
2023/07/13 12:29:18;;;;;;;1.43;0.80;;;28.40;68.60;;;;;;5016600;28;20485;-82
2023/07/13 12:31:48;;;;;;;1.43;0.80;;;28.60;67.60;;;;;;5009844;28;20488;-81
2023/07/13 12:34:29;;;;;;;1.47;0.80;;;28.90;67.60;;;;;;5018420;28;20640;-82
2023/07/13 12:36:59;;;;;;;1.47;0.80;;;29.20;67.60;;;;;;5013883;28;20508;-80
2023/07/13 12:39:30;;;;;;;1.50;0.80;;;29.50;66.40;;;;;;5016811;28;20494;-81
2023/07/13 12:42:19;;;;;;;1.43;0.80;;;29.80;65.40;;;;;;5013184;28;20565;-83
2023/07/13 12:44:47;;;;;;;1.50;0.80;;;30.10;65.50;;;;;;5019896;28;20467;-82
2023/07/13 12:47:19;;;;;;;1.50;1.00;;;30.20;64.80;;;;;;5012530;28;20484;-83
2023/07/13 12:49:51;;;;;;;1.47;0.80;;;30.20;65.10;;;;;;5012886;28;20474;-81
2023/07/13 12:52:23;;;;;;;1.47;0.80;;;30.20;65.70;;;;;;5017969;28;20576;-81
2023/07/13 12:54:58;;;;;;;1.47;0.80;;;30.00;64.70;;;;;;5017207;28;20551;-80
2023/07/13 12:57:25;;;;;;;1.47;0.80;;;30.00;65.40;;;;;;5025662;28;20492;-81
2023/07/13 12:59:54;;;;;;;1.50;0.80;;;30.20;64.30;;;;;;5018671;28;20487;-81
2023/07/13 13:02:30;;;;;;;1.47;0.80;;;30.40;64.30;;;;;;5011875;28;20910;-82
2023/07/13 13:05:03;;;;;;;1.43;0.80;;;30.50;63.60;;;;;;5014667;28;20550;-82
2023/07/13 13:07:30;;;;;;;1.50;0.80;;;30.60;61.50;;;;;;5023693;28;20882;-81
2023/07/13 13:09:57;;;;;;;1.47;0.80;;;30.70;61.80;;;;;;5013366;28;20538;-82
2023/07/13 13:12:26;;;;;;;1.43;0.80;;;30.70;63.10;;;;;;5014752;28;20475;-82
2023/07/13 13:14:53;;;;;;;1.43;0.80;;;30.30;62.50;;;;;;5017385;28;20801;-82
2023/07/13 13:17:23;;;;;;;1.60;1.10;;;30.30;63.40;;;;;;5021251;28;20488;-83
2023/07/13 13:19:52;;;;;;;1.40;0.80;;;30.30;63.20;;;;;;5019835;28;20518;-82
2023/07/13 13:22:55;;;;;;;1.43;0.80;;;30.40;62.70;;;;;;5024609;28;20487;-81